Time;durP1;ratioP1;P1;durP2;ratioP2;P2;SDS_P1;SDS_P2;PMS_P1;PMS_P2;Temp;Humidity;BMP_temperature;BMP_pressure;BME280_temperature;BME280_humidity;BME280_pressure;Samples;Min_cycle;Max_cycle;Signal;HPM_P1;HPM_P2
2022/04/26 03:37:39;;;;;;;10.25;4.13;;;22.30;58.60;;;;;;5077355;28;20049;-79
2022/04/26 03:40:06;;;;;;;6.20;4.35;;;22.30;58.50;;;;;;5077275;28;20041;-76
2022/04/26 03:42:34;;;;;;;6.30;3.95;;;22.40;58.40;;;;;;5076903;28;20033;-74
2022/04/26 03:45:00;;;;;;;6.57;4.40;;;22.30;58.40;;;;;;5076464;28;20052;-75
2022/04/26 03:47:26;;;;;;;7.43;3.42;;;22.30;58.40;;;;;;5077094;28;20056;-78
2022/04/26 03:49:52;;;;;;;10.98;4.03;;;22.30;58.40;;;;;;5076120;28;20053;-75
2022/04/26 03:52:20;;;;;;;5.45;3.50;;;22.30;58.40;;;;;;5077028;28;20044;-74
2022/04/26 03:54:47;;;;;;;4.82;3.20;;;22.20;58.20;;;;;;5076922;28;20045;-75
2022/04/26 03:57:12;;;;;;;5.93;2.95;;;22.20;58.30;;;;;;5077096;28;20037;-74
2022/04/26 03:59:39;;;;;;;8.13;3.70;;;22.30;58.10;;;;;;5076491;28;20041;-75
2022/04/26 04:02:05;;;;;;;6.70;3.95;;;22.40;57.90;;;;;;5075446;28;20047;-74
2022/04/26 04:04:31;;;;;;;6.05;3.60;;;22.40;57.90;;;;;;5075702;28;20041;-75
2022/04/26 04:06:57;;;;;;;7.40;5.43;;;22.50;58.00;;;;;;5076715;28;20036;-75
2022/04/26 04:09:24;;;;;;;8.93;5.80;;;22.40;57.80;;;;;;5075938;28;20044;-74
2022/04/26 04:11:50;;;;;;;6.65;3.17;;;22.60;57.60;;;;;;5076128;28;20062;-73
2022/04/26 04:14:16;;;;;;;6.18;3.33;;;22.50;57.60;;;;;;5076139;28;20108;-73
2022/04/26 04:16:42;;;;;;;7.35;3.72;;;22.80;60.60;;;;;;5076246;28;20123;-72
2022/04/26 04:19:25;;;;;;;6.30;4.15;;;23.10;61.80;;;;;;5076000;28;20041;-73
2022/04/26 04:21:51;;;;;;;7.60;4.25;;;23.30;61.80;;;;;;5075910;28;20059;-71
2022/04/26 04:24:19;;;;;;;6.90;3.67;;;23.40;63.40;;;;;;5075952;28;20037;-73
2022/04/26 04:26:46;;;;;;;6.70;3.83;;;23.50;57.20;;;;;;5075525;28;20043;-73
2022/04/26 04:29:13;;;;;;;6.72;4.35;;;23.40;55.30;;;;;;5075611;28;20040;-72
2022/04/26 04:31:39;;;;;;;7.53;4.43;;;23.40;54.50;;;;;;5075948;28;20048;-72
2022/04/26 04:34:06;;;;;;;8.35;4.88;;;23.30;54.70;;;;;;5076016;28;20055;-73
2022/04/26 04:36:32;;;;;;;5.75;4.63;;;23.40;55.20;;;;;;5075857;28;20041;-74
2022/04/26 04:38:58;;;;;;;7.25;3.88;;;23.40;54.80;;;;;;5075333;28;20052;-71
2022/04/26 04:41:25;;;;;;;8.60;4.80;;;23.40;54.40;;;;;;5075979;28;20044;-71
2022/04/26 04:43:51;;;;;;;10.95;3.88;;;23.50;54.30;;;;;;5075531;28;20052;-72
2022/04/26 04:46:17;;;;;;;10.15;4.20;;;23.40;53.90;;;;;;5075874;28;20041;-72
2022/04/26 04:48:43;;;;;;;9.88;3.40;;;23.40;53.70;;;;;;5075890;28;20045;-69
2022/04/26 04:51:09;;;;;;;4.32;3.08;;;23.40;53.40;;;;;;5075632;28;20036;-70
2022/04/26 04:53:35;;;;;;;1.17;1.17;;;23.50;53.60;;;;;;5075423;28;20045;-71
2022/04/26 04:56:02;;;;;;;4.47;1.88;;;23.50;53.60;;;;;;5077991;28;20040;-74
2022/04/26 04:58:28;;;;;;;3.03;1.73;;;23.50;53.80;;;;;;5079740;28;20091;-73
2022/04/26 05:00:54;;;;;;;1.17;1.15;;;23.50;53.90;;;;;;5079924;28;20033;-70
2022/04/26 05:03:20;;;;;;;5.65;2.50;;;23.60;53.60;;;;;;5078987;28;20033;-72
2022/04/26 05:05:47;;;;;;;2.90;2.33;;;23.50;54.00;;;;;;5079685;28;20052;-73
2022/04/26 05:08:13;;;;;;;3.97;2.65;;;23.50;54.30;;;;;;5079716;28;20032;-71
2022/04/26 05:10:40;;;;;;;3.10;1.95;;;23.60;54.80;;;;;;5079462;28;20045;-72
2022/04/26 05:13:07;;;;;;;2.35;1.38;;;23.50;54.00;;;;;;5079462;28;20406;-71
2022/04/26 05:15:33;;;;;;;8.02;2.90;;;23.60;54.40;;;;;;5079676;28;20037;-70
2022/04/26 05:18:01;;;;;;;3.10;2.70;;;23.70;54.20;;;;;;5078612;28;20041;-68
2022/04/26 05:20:27;;;;;;;7.90;1.88;;;23.60;54.80;;;;;;5079311;28;20040;-69
2022/04/26 05:25:48;;;;;;;2.17;1.40;;;23.60;55.60;;;;;;5065749;28;20072;-71
2022/04/26 05:28:14;;;;;;;1.63;1.15;;;23.90;57.80;;;;;;5078793;28;20044;-73
2022/04/26 05:30:40;;;;;;;2.08;1.83;;;23.70;57.70;;;;;;5078831;28;20072;-72
2022/04/26 05:33:06;;;;;;;5.43;1.65;;;23.80;57.50;;;;;;5078606;28;20048;-69
2022/04/26 05:35:33;;;;;;;1.23;1.13;;;23.80;57.80;;;;;;5078681;28;20067;-70
2022/04/26 05:37:59;;;;;;;2.20;1.52;;;23.80;56.50;;;;;;5078777;28;20063;-70
2022/04/26 05:40:25;;;;;;;1.40;1.02;;;23.80;56.50;;;;;;5078610;28;20044;-69
2022/04/26 05:42:52;;;;;;;0.93;0.93;;;23.80;58.00;;;;;;5078975;28;20059;-70
2022/04/26 05:45:19;;;;;;;2.97;2.20;;;23.80;56.80;;;;;;5078432;28;20056;-73
2022/04/26 05:47:45;;;;;;;4.63;2.28;;;23.80;56.50;;;;;;5078266;28;20040;-70
2022/04/26 05:50:12;;;;;;;1.48;1.30;;;23.70;55.90;;;;;;5075219;28;20098;-74
2022/04/26 05:52:39;;;;;;;8.02;2.58;;;23.80;56.10;;;;;;5077724;28;20045;-77
2022/04/26 05:55:10;;;;;;;4.28;2.03;;;23.90;56.20;;;;;;5078241;28;20068;-74
2022/04/26 05:57:40;;;;;;;4.10;2.33;;;23.80;58.50;;;;;;5075945;28;20045;-73
2022/04/26 06:00:09;;;;;;;3.38;2.55;;;23.80;55.90;;;;;;5077739;28;20108;-73
2022/04/26 06:02:42;;;;;;;3.85;2.30;;;23.80;55.40;;;;;;5076606;28;20092;-73
2022/04/26 06:05:11;;;;;;;2.15;1.77;;;23.90;55.50;;;;;;5076468;28;20067;-71
2022/04/26 06:07:38;;;;;;;4.13;2.60;;;23.90;55.40;;;;;;5075702;28;20049;-73
2022/04/26 06:10:05;;;;;;;3.13;1.90;;;23.90;55.40;;;;;;5076433;28;20052;-76
2022/04/26 06:12:31;;;;;;;3.67;2.50;;;23.80;55.50;;;;;;5075687;28;20028;-74
2022/04/26 06:14:59;;;;;;;3.65;1.83;;;23.80;55.60;;;;;;5076115;28;20064;-78
2022/04/26 06:17:27;;;;;;;2.75;1.95;;;24.00;55.90;;;;;;5076287;28;20048;-76
2022/04/26 06:19:53;;;;;;;6.18;2.22;;;23.90;55.90;;;;;;5076382;28;20045;-72
2022/04/26 06:22:19;;;;;;;2.53;1.60;;;23.90;56.20;;;;;;5076010;28;20037;-79
2022/04/26 06:24:50;;;;;;;4.15;2.05;;;24.00;56.30;;;;;;5091184;28;20040;-76
2022/04/26 06:27:17;;;;;;;2.38;2.05;;;23.80;56.10;;;;;;5096572;28;20119;-73
2022/04/26 06:29:44;;;;;;;3.53;2.08;;;23.90;56.20;;;;;;5078697;28;20901;-72
2022/04/26 06:32:11;;;;;;;4.90;2.00;;;23.90;56.20;;;;;;5095560;28;20103;-72
2022/04/26 06:34:38;;;;;;;1.35;1.25;;;23.80;56.20;;;;;;5095904;28;20059;-74
2022/04/26 06:37:04;;;;;;;1.90;1.80;;;23.90;56.30;;;;;;5080044;28;20064;-77
2022/04/26 06:39:30;;;;;;;3.10;1.73;;;23.90;55.80;;;;;;5077178;28;20040;-78
2022/04/26 06:41:56;;;;;;;2.42;2.22;;;23.90;56.30;;;;;;5077752;28;20044;-73
2022/04/26 06:44:25;;;;;;;5.05;1.70;;;23.90;56.60;;;;;;5077559;28;20053;-80
2022/04/26 06:46:51;;;;;;;4.45;2.25;;;23.90;56.70;;;;;;5077744;28;20041;-79
2022/04/26 06:49:17;;;;;;;1.55;1.35;;;23.90;56.70;;;;;;5075107;28;20041;-74
2022/04/26 06:51:44;;;;;;;2.72;0.77;;;23.90;56.70;;;;;;5076411;28;20108;-79
2022/04/26 06:54:11;;;;;;;4.85;1.80;;;24.00;56.60;;;;;;5076593;28;20036;-76
2022/04/26 06:56:40;;;;;;;2.13;1.50;;;23.90;56.50;;;;;;5076252;28;20045;-75
2022/04/26 06:59:06;;;;;;;3.03;1.60;;;24.00;56.30;;;;;;5077186;28;20124;-76
2022/04/26 07:01:32;;;;;;;6.93;2.10;;;23.90;56.20;;;;;;5076936;28;20037;-76
2022/04/26 07:03:58;;;;;;;7.20;1.60;;;24.10;56.10;;;;;;5076665;28;20053;-77
2022/04/26 07:06:24;;;;;;;3.58;1.10;;;23.90;55.90;;;;;;5076433;28;20045;-80
2022/04/26 07:08:50;;;;;;;2.60;1.88;;;24.10;55.90;;;;;;5076175;28;20048;-76
2022/04/26 07:11:16;;;;;;;1.88;1.10;;;24.10;55.60;;;;;;5076451;28;20045;-72
2022/04/26 07:13:42;;;;;;;1.63;1.52;;;23.90;55.10;;;;;;5076345;28;20033;-76
2022/04/26 07:16:09;;;;;;;2.75;1.50;;;23.90;55.40;;;;;;5076228;28;20045;-77
2022/04/26 07:18:35;;;;;;;2.22;1.17;;;23.90;54.40;;;;;;5075912;28;20036;-81
2022/04/26 07:21:01;;;;;;;1.95;0.90;;;24.00;56.30;;;;;;5076459;28;20033;-80
2022/04/26 07:23:32;;;;;;;1.13;1.02;;;24.10;56.10;;;;;;5075102;28;20032;-80
2022/04/26 07:25:59;;;;;;;4.63;1.42;;;24.00;55.60;;;;;;5058990;28;20033;-79
2022/04/26 07:28:25;;;;;;;1.20;1.10;;;24.10;55.60;;;;;;5076753;28;20056;-79
2022/04/26 07:30:53;;;;;;;1.10;1.00;;;24.00;54.50;;;;;;5076700;28;20040;-76
2022/04/26 07:36:06;;;;;;;4.65;2.00;;;23.90;55.30;;;;;;5076601;28;20048;-80
2022/04/26 07:38:32;;;;;;;1.98;1.45;;;23.90;55.10;;;;;;5075671;28;20048;-82
2022/04/26 07:41:21;;;;;;;1.38;1.20;;;23.90;54.10;;;;;;5126202;27;20382;-72
2022/04/26 07:43:47;;;;;;;0.77;0.77;;;24.00;54.80;;;;;;5092763;28;20045;-71
2022/04/26 07:46:17;;;;;;;2.53;1.38;;;23.90;55.30;;;;;;5092481;28;20037;-71
2022/04/26 07:48:44;;;;;;;3.88;1.27;;;24.00;54.20;;;;;;5093114;28;20029;-70
2022/04/26 07:51:13;;;;;;;2.65;1.30;;;24.00;54.20;;;;;;5093223;28;20094;-71
2022/04/26 07:53:39;;;;;;;2.67;1.17;;;24.00;52.60;;;;;;5092956;28;20037;-70
2022/04/26 07:56:06;;;;;;;3.78;1.52;;;24.00;53.40;;;;;;5093197;28;20044;-69
2022/04/26 07:58:33;;;;;;;3.80;1.48;;;23.90;53.70;;;;;;5093080;28;20036;-72
2022/04/26 08:00:59;;;;;;;1.15;0.95;;;24.10;52.70;;;;;;5092946;28;20044;-71
2022/04/26 08:03:25;;;;;;;1.25;1.15;;;24.00;51.10;;;;;;5092923;28;20037;-72
2022/04/26 08:05:53;;;;;;;1.73;1.00;;;24.00;50.60;;;;;;5075302;28;20120;-72
2022/04/26 08:08:19;;;;;;;3.90;0.93;;;24.00;51.90;;;;;;5091564;28;20044;-71
2022/04/26 08:10:45;;;;;;;1.02;1.02;;;24.00;51.90;;;;;;5072842;28;20045;-72
2022/04/26 08:13:12;;;;;;;2.55;1.13;;;24.00;51.70;;;;;;5071431;28;20533;-72
2022/04/26 08:15:39;;;;;;;1.20;1.10;;;24.00;49.70;;;;;;5072663;28;20056;-72
2022/04/26 08:18:06;;;;;;;1.23;1.13;;;24.00;48.10;;;;;;5072422;28;20109;-71
2022/04/26 08:20:33;;;;;;;1.85;0.88;;;23.90;46.90;;;;;;5072286;28;20148;-70
2022/04/26 08:22:59;;;;;;;1.73;0.95;;;24.00;45.20;;;;;;5072405;28;20101;-70
2022/04/26 08:28:11;;;;;;;1.85;0.85;;;24.00;47.20;;;;;;5072375;28;20044;-71
2022/04/26 08:30:37;;;;;;;0.98;0.80;;;23.90;47.30;;;;;;5072142;28;20105;-70
2022/04/26 08:33:03;;;;;;;0.20;0.20;;;23.90;45.90;;;;;;5072117;28;20048;-72
2022/04/26 08:35:31;;;;;;;2.42;1.55;;;24.00;45.50;;;;;;5071376;28;20049;-70
2022/04/26 08:37:57;;;;;;;1.20;1.10;;;24.10;46.10;;;;;;5072279;28;20051;-71
2022/04/26 08:40:25;;;;;;;2.22;2.03;;;24.00;46.20;;;;;;5071126;28;20112;-72
2022/04/26 08:42:52;;;;;;;2.55;2.35;;;24.00;45.20;;;;;;5071629;28;20033;-71
2022/04/26 08:45:21;;;;;;;2.63;1.25;;;24.00;45.20;;;;;;5071677;28;20072;-71
2022/04/26 08:53:21;;;;;;;0.65;0.65;;;24.20;42.90;;;;;;5057750;28;20105;-71
2022/04/26 08:55:53;;;;;;;1.17;1.08;;;24.00;42.20;;;;;;5076527;28;20100;-70
2022/04/26 08:58:21;;;;;;;0.80;0.75;;;24.20;43.30;;;;;;5078189;28;20075;-70
2022/04/26 09:01:04;;;;;;;1.60;1.20;;;24.10;43.30;;;;;;5078198;28;20045;-74
2022/04/26 09:03:34;;;;;;;1.73;1.00;;;24.10;43.00;;;;;;5078371;28;20155;-70
2022/04/26 09:06:07;;;;;;;1.30;1.20;;;24.10;43.40;;;;;;5077757;28;20021;-71
2022/04/26 09:08:35;;;;;;;1.25;1.15;;;24.10;43.40;;;;;;5078296;28;20055;-70
2022/04/26 09:11:01;;;;;;;1.15;0.80;;;24.10;43.90;;;;;;5078241;28;20033;-70
2022/04/26 09:13:27;;;;;;;0.68;0.68;;;24.30;46.00;;;;;;5077204;28;20104;-70
2022/04/26 09:15:57;;;;;;;1.08;1.00;;;24.70;47.30;;;;;;5080228;28;20083;-72
2022/04/26 09:18:32;;;;;;;1.52;1.00;;;24.70;45.30;;;;;;5087039;28;20049;-71
2022/04/26 09:21:08;;;;;;;0.63;0.63;;;24.80;43.80;;;;;;5078297;28;20101;-70
2022/04/26 09:23:38;;;;;;;2.72;2.50;;;24.60;43.30;;;;;;5078047;28;20033;-73
2022/04/26 09:26:07;;;;;;;1.98;1.73;;;24.80;43.90;;;;;;5077195;28;20041;-74
2022/04/26 09:28:34;;;;;;;5.85;3.92;;;24.80;44.50;;;;;;5077243;28;20099;-74
2022/04/26 09:31:00;;;;;;;5.20;1.83;;;24.70;44.30;;;;;;5077844;28;20045;-73
2022/04/26 09:33:37;;;;;;;1.45;1.35;;;25.10;44.00;;;;;;5077737;28;20092;-77
2022/04/26 09:36:11;;;;;;;2.88;1.25;;;25.00;48.70;;;;;;5077386;28;20108;-78
2022/04/26 09:38:38;;;;;;;1.67;1.05;;;24.80;47.80;;;;;;5077622;28;20037;-75
2022/04/26 09:41:09;;;;;;;2.17;1.80;;;24.80;48.20;;;;;;5077012;28;20064;-77
2022/04/26 09:43:37;;;;;;;1.65;1.10;;;24.70;47.80;;;;;;5077127;28;20037;-77
2022/04/26 09:46:04;;;;;;;2.92;1.30;;;24.70;46.60;;;;;;5076102;28;20051;-76
2022/04/26 09:48:36;;;;;;;3.22;1.45;;;24.60;47.50;;;;;;5060318;28;20107;-76
2022/04/26 09:51:08;;;;;;;6.78;1.55;;;24.80;55.30;;;;;;5089575;28;20044;-79
2022/04/26 09:53:34;;;;;;;1.77;1.20;;;25.10;54.40;;;;;;5077803;28;20045;-75
2022/04/26 09:56:03;;;;;;;5.35;2.90;;;25.40;58.00;;;;;;5076764;28;20079;-81
2022/04/26 09:58:34;;;;;;;1.07;0.90;;;25.30;55.20;;;;;;5076444;28;20048;-78
2022/04/26 10:01:04;;;;;;;1.27;1.23;;;25.40;50.30;;;;;;5075492;28;20072;-79
2022/04/26 10:03:39;;;;;;;1.33;0.98;;;25.30;48.20;;;;;;5076095;28;20033;-81
2022/04/26 10:06:07;;;;;;;1.65;1.40;;;25.10;48.30;;;;;;5076513;28;20028;-76
2022/04/26 10:08:35;;;;;;;0.50;0.50;;;25.10;47.40;;;;;;5077328;28;20044;-77
2022/04/26 10:11:03;;;;;;;0.43;0.43;;;25.00;47.80;;;;;;5076962;28;20045;-75
2022/04/26 10:13:32;;;;;;;1.95;1.63;;;25.00;47.70;;;;;;5076942;28;20052;-77
2022/04/26 10:16:07;;;;;;;2.17;1.17;;;25.30;46.10;;;;;;5076467;28;20131;-78
2022/04/26 10:18:37;;;;;;;1.27;1.20;;;25.30;45.50;;;;;;5077147;28;20059;-79
2022/04/26 10:21:04;;;;;;;2.15;1.40;;;25.40;47.90;;;;;;5076653;28;20056;-76
2022/04/26 10:23:50;;;;;;;2.22;1.67;;;25.60;51.60;;;;;;5075825;28;20033;-76
2022/04/26 10:26:22;;;;;;;2.28;1.15;;;25.90;54.20;;;;;;5075882;28;20037;-76
2022/04/26 10:28:54;;;;;;;1.65;1.30;;;25.90;49.30;;;;;;5076791;28;20041;-78
2022/04/26 10:31:37;;;;;;;0.90;0.90;;;25.70;45.30;;;;;;5076900;28;20040;-76
2022/04/26 10:34:25;;;;;;;2.28;1.33;;;25.60;48.20;;;;;;5076426;28;20047;-76
2022/04/26 10:36:55;;;;;;;1.77;1.33;;;25.30;48.40;;;;;;5075717;28;20040;-79
2022/04/26 10:39:27;;;;;;;0.90;0.90;;;25.40;48.30;;;;;;5076275;28;20079;-76
2022/04/26 10:41:54;;;;;;;;;;;25.20;48.80;;;;;;5076977;28;20045;-77
2022/04/26 10:44:21;;;;;;;0.70;0.70;;;25.30;49.10;;;;;;5076515;28;19968;-76
2022/04/26 10:46:55;;;;;;;2.75;0.93;;;25.20;49.20;;;;;;5075939;28;20032;-73
2022/04/26 10:49:24;;;;;;;1.00;1.00;;;25.30;49.30;;;;;;5076250;28;20040;-78
2022/04/26 10:51:53;;;;;;;0.50;0.50;;;25.20;49.20;;;;;;5076315;28;20032;-77
2022/04/26 10:55:03;;;;;;;2.78;1.50;;;25.20;49.30;;;;;;5075657;28;20049;-77
2022/04/26 10:57:44;;;;;;;1.17;1.00;;;25.10;49.40;;;;;;5106828;28;20036;-78
2022/04/26 11:00:16;;;;;;;2.40;1.13;;;25.30;49.10;;;;;;5076227;28;20045;-78
2022/04/26 11:02:48;;;;;;;0.80;0.80;;;25.10;49.30;;;;;;5076309;28;20083;-77
2022/04/26 11:05:23;;;;;;;1.17;1.00;;;25.10;49.50;;;;;;5075964;28;20041;-78
2022/04/26 11:07:49;;;;;;;0.88;0.73;;;25.10;49.30;;;;;;5075921;28;20096;-77
2022/04/26 11:10:24;;;;;;;1.75;1.00;;;25.10;49.50;;;;;;5058870;28;20040;-78
2022/04/26 11:12:51;;;;;;;2.00;1.00;;;25.10;49.50;;;;;;5075490;28;20048;-78
2022/04/26 11:15:20;;;;;;;0.65;0.65;;;25.10;49.70;;;;;;5075675;28;20072;-81
2022/04/26 11:17:47;;;;;;;2.13;1.10;;;25.00;49.70;;;;;;5076042;28;20041;-82
2022/04/26 11:20:19;;;;;;;1.20;1.10;;;25.10;49.50;;;;;;5075364;28;20055;-82
2022/04/26 11:22:55;;;;;;;1.20;0.90;;;25.00;48.30;;;;;;5075998;28;20128;-80
2022/04/26 11:28:09;;;;;;;1.85;0.95;;;25.00;48.90;;;;;;5075529;28;20071;-77
2022/04/26 11:30:42;;;;;;;1.10;1.00;;;25.20;49.60;;;;;;5062038;28;20156;-77
2022/04/26 11:33:20;;;;;;;2.05;1.10;;;25.00;49.80;;;;;;5055653;28;20030;-76
2022/04/26 11:36:04;;;;;;;1.13;1.13;;;25.00;49.60;;;;;;5073159;28;20132;-77
2022/04/26 11:38:30;;;;;;;3.90;1.20;;;25.00;49.00;;;;;;5061083;28;20052;-75
2022/04/26 11:40:59;;;;;;;0.93;0.85;;;25.00;50.10;;;;;;5075202;28;20045;-73
2022/04/26 11:43:27;;;;;;;1.05;1.05;;;24.90;49.90;;;;;;5074866;28;20037;-73
2022/04/26 11:45:56;;;;;;;1.40;1.20;;;25.00;49.10;;;;;;5075154;28;20040;-79
2022/04/26 11:48:25;;;;;;;1.30;1.02;;;25.00;49.70;;;;;;5074568;28;20033;-79
2022/04/26 11:50:53;;;;;;;1.77;1.10;;;25.00;50.20;;;;;;5074947;28;20043;-78
2022/04/26 11:53:20;;;;;;;4.03;1.05;;;24.90;50.30;;;;;;5075235;28;20037;-78
2022/04/26 11:56:05;;;;;;;2.00;1.20;;;25.00;50.30;;;;;;5075099;28;20062;-73
2022/04/26 11:58:34;;;;;;;0.85;0.85;;;24.90;49.80;;;;;;5075345;28;20041;-71
2022/04/26 12:01:00;;;;;;;1.33;1.10;;;24.90;50.00;;;;;;5074696;28;20037;-74
2022/04/26 12:03:32;;;;;;;1.45;1.00;;;24.90;50.50;;;;;;5075614;28;20115;-79
2022/04/26 12:06:04;;;;;;;1.10;0.90;;;24.90;50.60;;;;;;5074661;28;20100;-76
2022/04/26 12:08:42;;;;;;;1.40;1.07;;;24.80;50.50;;;;;;5074982;28;20041;-77
2022/04/26 12:11:26;;;;;;;1.65;1.10;;;25.00;50.90;;;;;;5074814;28;20043;-75
2022/04/26 12:14:03;;;;;;;1.30;1.15;;;24.80;50.80;;;;;;5075542;28;20092;-76
2022/04/26 12:16:31;;;;;;;1.58;1.10;;;24.80;50.80;;;;;;5074364;28;20037;-75
2022/04/26 12:19:01;;;;;;;1.17;0.82;;;24.90;49.80;;;;;;5072906;28;20092;-76
2022/04/26 12:21:42;;;;;;;1.15;0.75;;;24.80;50.30;;;;;;5065356;28;20037;-75
2022/04/26 12:24:13;;;;;;;2.08;1.10;;;24.70;50.30;;;;;;5071265;28;20048;-75
2022/04/26 12:26:53;;;;;;;0.80;0.80;;;24.60;49.90;;;;;;5055454;28;20097;-75
2022/04/26 12:29:19;;;;;;;0.77;0.77;;;24.70;50.30;;;;;;5058442;28;20041;-75
2022/04/26 12:31:47;;;;;;;1.13;0.80;;;24.70;50.30;;;;;;5058609;28;20075;-75
2022/04/26 12:34:23;;;;;;;0.80;0.80;;;24.70;50.40;;;;;;5058471;28;20044;-75
2022/04/26 12:37:02;;;;;;;1.00;0.75;;;24.80;50.50;;;;;;5058334;28;20040;-75
2022/04/26 12:39:40;;;;;;;1.20;0.90;;;24.60;50.50;;;;;;5057205;28;20684;-75
2022/04/26 12:42:14;;;;;;;1.02;1.02;;;24.80;50.60;;;;;;5058314;28;20128;-75
2022/04/26 12:44:53;;;;;;;2.58;0.98;;;24.60;50.60;;;;;;5058396;28;20046;-75
2022/04/26 12:52:55;;;;;;;1.10;0.68;;;24.70;51.00;;;;;;5058516;28;20049;-75
2022/04/26 12:55:28;;;;;;;1.13;1.02;;;24.80;50.60;;;;;;5058183;28;20105;-75
2022/04/26 12:57:56;;;;;;;0.98;0.93;;;24.70;51.10;;;;;;5058541;28;20107;-75
2022/04/26 13:00:24;;;;;;;1.33;0.80;;;24.80;51.20;;;;;;5058072;28;20057;-75
2022/04/26 13:02:52;;;;;;;2.40;1.15;;;24.80;51.20;;;;;;5058724;28;20103;-75
2022/04/26 13:05:20;;;;;;;1.20;0.90;;;24.80;51.20;;;;;;5058077;28;20047;-75
2022/04/26 13:07:47;;;;;;;1.02;0.80;;;24.70;51.20;;;;;;5058198;28;20041;-75
2022/04/26 13:10:17;;;;;;;0.50;0.50;;;24.70;51.30;;;;;;5058007;28;20028;-75
2022/04/26 13:12:44;;;;;;;0.98;0.98;;;24.60;51.20;;;;;;5058326;28;20051;-75
2022/04/26 13:15:11;;;;;;;1.25;1.00;;;24.60;51.30;;;;;;5057758;28;20037;-77
2022/04/26 13:17:38;;;;;;;1.17;1.00;;;24.70;51.50;;;;;;5058238;28;20104;-75
2022/04/26 13:20:06;;;;;;;4.03;1.00;;;24.60;51.70;;;;;;5058027;28;20071;-76
2022/04/26 13:22:35;;;;;;;0.82;0.82;;;24.60;51.80;;;;;;5057931;28;20045;-75
2022/04/26 13:25:06;;;;;;;1.85;0.90;;;24.60;51.90;;;;;;5057713;28;20091;-76
2022/04/26 13:27:33;;;;;;;2.42;1.10;;;24.60;51.90;;;;;;5058018;28;20049;-71
2022/04/26 13:29:59;;;;;;;1.15;0.90;;;24.60;52.10;;;;;;5058029;28;20073;-73
2022/04/26 13:32:29;;;;;;;1.80;1.02;;;24.50;51.60;;;;;;5056573;28;20061;-74
2022/04/26 13:35:00;;;;;;;1.88;1.58;;;24.60;51.90;;;;;;5074871;28;20045;-74
2022/04/26 13:37:27;;;;;;;0.93;0.90;;;24.50;51.90;;;;;;5075802;28;20040;-74
2022/04/26 13:39:54;;;;;;;1.30;0.95;;;24.50;52.00;;;;;;5074999;28;20056;-75
2022/04/26 13:42:23;;;;;;;4.97;1.20;;;24.50;51.80;;;;;;5075898;28;20092;-74
2022/04/26 13:44:52;;;;;;;1.10;1.00;;;24.50;52.10;;;;;;5074977;28;20051;-74
2022/04/26 13:47:19;;;;;;;3.97;1.27;;;24.40;51.90;;;;;;5075432;28;20025;-72
2022/04/26 13:49:45;;;;;;;2.78;1.10;;;24.50;52.30;;;;;;5075488;28;20045;-72
2022/04/26 13:52:11;;;;;;;3.53;1.23;;;24.50;51.80;;;;;;5075271;28;20074;-72
2022/04/26 13:54:38;;;;;;;1.48;1.33;;;24.50;51.40;;;;;;5075520;28;20049;-74
2022/04/26 13:57:07;;;;;;;1.63;1.52;;;24.40;52.20;;;;;;5074873;28;20052;-72
2022/04/26 13:59:33;;;;;;;1.77;1.00;;;24.50;52.40;;;;;;5075155;28;20053;-74
2022/04/26 14:01:59;;;;;;;1.30;1.20;;;24.50;52.40;;;;;;5075499;28;20041;-74
2022/04/26 14:04:26;;;;;;;0.80;0.80;;;24.40;52.40;;;;;;5074833;28;20032;-74
2022/04/26 14:06:52;;;;;;;3.65;1.40;;;24.50;52.40;;;;;;5074905;28;20045;-72
2022/04/26 14:09:18;;;;;;;1.42;1.30;;;24.50;52.10;;;;;;5075310;28;20033;-73
2022/04/26 14:11:48;;;;;;;1.67;1.23;;;24.50;50.90;;;;;;5074759;28;20041;-74
2022/04/26 14:22:32;;;;;;;0.80;0.80;;;24.40;52.50;;;;;;5077069;28;20041;-72
2022/04/26 14:25:02;;;;;;;1.00;1.00;;;24.40;52.50;;;;;;5076762;28;20049;-71
2022/04/26 14:27:29;;;;;;;1.17;1.08;;;24.30;55.60;;;;;;5076793;28;20109;-70
2022/04/26 14:29:56;;;;;;;1.02;1.02;;;24.40;56.00;;;;;;5076792;28;20105;-73
2022/04/26 14:32:22;;;;;;;2.72;1.48;;;24.40;57.80;;;;;;5076272;28;20076;-72
2022/04/26 14:34:49;;;;;;;5.68;1.38;;;24.50;52.10;;;;;;5077063;28;20052;-72
2022/04/26 14:37:16;;;;;;;5.95;2.05;;;24.40;50.00;;;;;;5076620;28;20117;-73
2022/04/26 14:39:43;;;;;;;3.53;1.40;;;24.50;53.80;;;;;;5076272;28;20075;-73
2022/04/26 14:42:09;;;;;;;1.83;1.27;;;24.70;49.80;;;;;;5076252;28;20041;-71
2022/04/26 14:44:36;;;;;;;2.13;1.85;;;24.80;49.40;;;;;;5076302;28;20056;-70
2022/04/26 14:47:03;;;;;;;1.65;1.30;;;24.80;53.20;;;;;;5076085;28;20051;-71
2022/04/26 14:49:30;;;;;;;1.77;1.40;;;24.80;53.00;;;;;;5075848;28;20044;-71
2022/04/26 14:51:56;;;;;;;2.05;1.20;;;24.70;51.90;;;;;;5075598;28;20068;-71
2022/04/26 14:54:22;;;;;;;10.82;2.03;;;24.80;52.90;;;;;;5074865;28;20044;-72
2022/04/26 14:56:50;;;;;;;1.63;1.13;;;24.70;52.50;;;;;;5076066;28;20066;-74
2022/04/26 14:59:18;;;;;;;3.15;1.38;;;24.80;51.90;;;;;;5076196;28;20045;-73
2022/04/26 15:01:46;;;;;;;4.47;1.88;;;24.80;53.20;;;;;;5075851;28;20063;-68
2022/04/26 15:04:13;;;;;;;3.33;1.90;;;24.70;53.40;;;;;;5076083;28;20380;-68
2022/04/26 15:06:39;;;;;;;2.97;2.35;;;24.70;53.40;;;;;;5075915;28;20043;-68
2022/04/26 15:16:37;;;;;;;2.55;1.30;;;24.70;53.60;;;;;;5075763;28;20063;-68
2022/04/26 15:17:21;;;;;;;1.85;1.50;;;24.80;52.20;;;;;;5074637;28;20052;-67
2022/04/26 15:19:48;;;;;;;3.85;2.08;;;24.60;52.10;;;;;;5073777;28;20041;-67
2022/04/26 15:22:17;;;;;;;1.55;1.45;;;24.70;51.60;;;;;;5073754;28;20104;-69
2022/04/26 15:24:43;;;;;;;3.33;1.30;;;24.60;51.80;;;;;;5073778;28;20143;-67
2022/04/26 15:27:09;;;;;;;7.50;1.23;;;24.50;51.80;;;;;;5073649;28;20076;-66
2022/04/26 15:29:35;;;;;;;2.22;0.90;;;24.70;53.60;;;;;;5073366;28;20048;-74
2022/04/26 15:32:01;;;;;;;2.53;1.10;;;24.70;53.50;;;;;;5073440;28;20108;-70
2022/04/26 15:34:28;;;;;;;1.15;1.05;;;24.80;53.50;;;;;;5072570;28;20040;-68
2022/04/26 15:36:54;;;;;;;0.80;0.60;;;24.80;54.00;;;;;;5073357;28;20045;-69
2022/04/26 15:39:20;;;;;;;1.35;1.00;;;25.00;53.20;;;;;;5073054;28;20045;-66
2022/04/26 15:41:46;;;;;;;2.15;1.35;;;25.00;52.50;;;;;;5073936;28;20056;-64
2022/04/26 15:44:13;;;;;;;0.93;0.93;;;25.10;53.00;;;;;;5073606;28;20045;-65
2022/04/26 15:46:39;;;;;;;1.73;1.55;;;25.30;52.30;;;;;;5073641;28;20045;-64
2022/04/26 15:49:05;;;;;;;0.90;0.90;;;25.30;49.90;;;;;;5073747;28;20061;-64
2022/04/26 15:51:32;;;;;;;3.20;1.55;;;25.30;49.10;;;;;;5073527;28;20061;-65
2022/04/26 15:54:00;;;;;;;2.60;1.10;;;25.10;48.30;;;;;;5056240;28;20048;-67
2022/04/26 15:56:26;;;;;;;5.45;2.60;;;25.20;46.80;;;;;;5073502;28;20033;-67
2022/04/26 15:58:52;;;;;;;0.95;0.88;;;25.10;46.40;;;;;;5073415;28;20036;-69
2022/04/26 16:01:18;;;;;;;1.15;1.02;;;25.20;46.30;;;;;;5073969;28;20048;-68
2022/04/26 16:03:44;;;;;;;2.78;1.30;;;25.20;42.30;;;;;;5077246;28;20028;-70
2022/04/26 16:06:11;;;;;;;2.63;1.52;;;25.10;43.60;;;;;;5077156;28;20052;-69
2022/04/26 16:08:38;;;;;;;2.42;1.50;;;25.20;45.10;;;;;;5077312;28;20037;-67
2022/04/26 16:22:04;;;;;;;3.38;1.38;;;25.00;46.40;;;;;;5079468;28;20102;-71
2022/04/26 16:24:36;;;;;;;4.00;1.80;;;25.10;49.20;;;;;;5079106;28;20135;-70
2022/04/26 16:27:03;;;;;;;2.80;1.58;;;25.00;49.80;;;;;;5078866;28;20087;-69
2022/04/26 16:29:29;;;;;;;2.30;1.42;;;25.00;49.20;;;;;;5079283;28;20041;-69
2022/04/26 16:31:55;;;;;;;1.33;1.20;;;24.90;49.30;;;;;;5078818;28;20104;-68
2022/04/26 16:34:21;;;;;;;1.83;1.73;;;25.00;49.10;;;;;;5078961;28;21122;-70
2022/04/26 16:36:47;;;;;;;1.40;1.30;;;25.00;49.40;;;;;;5078980;28;20044;-70
2022/04/26 16:39:13;;;;;;;3.58;1.20;;;24.90;49.40;;;;;;5078441;28;20044;-71
2022/04/26 16:41:40;;;;;;;1.17;1.08;;;24.80;49.70;;;;;;5080657;28;20108;-70
2022/04/26 16:44:08;;;;;;;2.40;1.60;;;24.90;49.80;;;;;;5098598;28;20048;-70
2022/04/26 16:46:36;;;;;;;1.45;1.35;;;24.80;49.60;;;;;;5098108;28;20100;-70
2022/04/26 16:49:03;;;;;;;1.30;1.20;;;24.80;49.70;;;;;;5098991;28;20032;-71
2022/04/26 16:51:32;;;;;;;1.40;1.30;;;24.80;50.00;;;;;;5097932;28;20044;-70
2022/04/26 16:53:59;;;;;;;1.38;1.10;;;24.90;50.20;;;;;;5098666;28;20115;-70
2022/04/26 16:56:25;;;;;;;1.20;1.10;;;24.80;50.30;;;;;;5098400;28;20071;-70
2022/04/26 16:58:51;;;;;;;1.40;1.27;;;24.80;50.30;;;;;;5079888;28;20041;-71
2022/04/26 17:01:17;;;;;;;3.65;1.20;;;24.80;50.40;;;;;;5078239;28;20044;-71
2022/04/26 17:03:46;;;;;;;1.38;1.20;;;24.80;50.50;;;;;;5078697;28;20029;-70
2022/04/26 17:06:12;;;;;;;2.50;1.55;;;24.80;50.50;;;;;;5078438;28;20284;-71
2022/04/26 17:08:38;;;;;;;2.03;1.58;;;24.80;50.30;;;;;;5078475;28;20037;-70
2022/04/26 17:13:59;;;;;;;1.52;1.42;;;24.70;50.00;;;;;;5072559;28;20051;-71
2022/04/26 17:16:25;;;;;;;1.42;1.02;;;24.80;50.20;;;;;;5077220;28;20045;-72
2022/04/26 17:18:52;;;;;;;1.50;1.40;;;24.80;50.50;;;;;;5076661;28;20045;-72
2022/04/26 17:21:19;;;;;;;1.67;1.40;;;24.80;50.50;;;;;;5077784;28;20045;-71